Time;durP1;ratioP1;P1;durP2;ratioP2;P2;SDS_P1;SDS_P2;PMS_P1;PMS_P2;Temp;Humidity;BMP_temperature;BMP_pressure;BME280_temperature;BME280_humidity;BME280_pressure;Samples;Min_cycle;Max_cycle;Signal;HPM_P1;HPM_P2
2023/02/08 00:02:24;;;;;;;20.92;9.10;;;;;;;;;;4990001;28;20026;-69
2023/02/08 00:04:49;;;;;;;23.50;9.52;;;;;;;;;;4991683;28;20023;-69
2023/02/08 00:07:15;;;;;;;28.80;10.38;;;;;;;;;;4989704;28;20486;-69
2023/02/08 00:09:40;;;;;;;22.65;9.55;;;;;;;;;;4992792;28;20037;-70
2023/02/08 00:12:05;;;;;;;18.80;8.85;;;;;;;;;;4992172;28;20022;-68
2023/02/08 00:14:30;;;;;;;21.30;9.02;;;;;;;;;;4991278;28;20025;-69
2023/02/08 00:16:56;;;;;;;21.75;8.98;;;;;;;;;;4990043;28;20018;-69
2023/02/08 00:19:21;;;;;;;27.53;9.53;;;;;;;;;;4993191;28;20037;-69
2023/02/08 00:21:46;;;;;;;19.33;8.10;;;;;;;;;;4990809;28;20273;-69
2023/02/08 00:24:11;;;;;;;18.23;7.53;;;;;;;;;;4992212;28;20054;-69
2023/02/08 00:26:37;;;;;;;24.38;8.70;;;;;;;;;;4990705;28;20033;-69
2023/02/08 00:29:02;;;;;;;19.80;8.82;;;;;;;;;;4992398;28;20098;-69
2023/02/08 00:31:27;;;;;;;19.15;8.05;;;;;;;;;;4991044;28;20022;-69
2023/02/08 00:33:52;;;;;;;19.35;8.05;;;;;;;;;;4990558;28;20019;-69
2023/02/08 00:36:17;;;;;;;17.52;7.53;;;;;;;;;;4989122;28;20022;-69
2023/02/08 00:38:43;;;;;;;22.67;8.02;;;;;;;;;;4989614;28;20097;-69
2023/02/08 00:41:08;;;;;;;22.17;8.55;;;;;;;;;;4990646;28;20053;-69
2023/02/08 00:43:33;;;;;;;19.33;7.93;;;;;;;;;;4990022;28;20077;-69
2023/02/08 00:45:59;;;;;;;18.58;7.97;;;;;;;;;;4990262;28;20018;-69
2023/02/08 00:48:25;;;;;;;25.23;8.18;;;;;;;;;;4990666;28;20467;-69
2023/02/08 00:51:16;;;;;;;19.27;8.23;;;;;;;;;;4988460;28;20390;-69
2023/02/08 00:53:42;;;;;;;16.70;7.88;;;;;;;;;;4988115;28;20038;-69
2023/02/08 00:56:08;;;;;;;16.95;7.95;;;;;;;;;;4989601;28;20041;-69
2023/02/08 00:58:34;;;;;;;19.05;7.97;;;;;;;;;;4989464;28;20085;-69
2023/02/08 01:00:59;;;;;;;20.35;8.02;;;;;;;;;;4990651;28;20084;-69
2023/02/08 01:03:24;;;;;;;15.70;7.85;;;;;;;;;;4990788;28;20502;-69
2023/02/08 01:05:50;;;;;;;21.00;8.82;;;;;;;;;;4973308;28;20027;-69
2023/02/08 01:08:15;;;;;;;25.08;8.00;;;;;;;;;;4989145;28;20057;-69
2023/02/08 01:10:41;;;;;;;15.77;7.72;;;;;;;;;;4990625;28;20026;-69
2023/02/08 01:13:06;;;;;;;20.10;7.90;;;;;;;;;;4990369;28;20022;-69
2023/02/08 01:15:31;;;;;;;17.63;7.93;;;;;;;;;;4991386;28;20089;-69
2023/02/08 01:17:57;;;;;;;16.27;8.07;;;;;;;;;;4989658;28;20029;-69
2023/02/08 01:20:22;;;;;;;19.05;8.25;;;;;;;;;;4990274;28;20053;-69
2023/02/08 01:22:47;;;;;;;15.60;7.03;;;;;;;;;;4990427;28;20023;-69
2023/02/08 01:25:13;;;;;;;19.30;7.90;;;;;;;;;;4973186;28;20215;-69
2023/02/08 01:27:38;;;;;;;17.05;8.13;;;;;;;;;;4988284;28;20045;-69
2023/02/08 01:30:04;;;;;;;16.92;7.40;;;;;;;;;;4988766;28;20053;-69
2023/02/08 01:32:29;;;;;;;20.67;8.38;;;;;;;;;;4990656;28;20121;-69
2023/02/08 01:34:54;;;;;;;17.95;7.00;;;;;;;;;;4989509;28;20483;-69
2023/02/08 01:37:19;;;;;;;22.38;7.60;;;;;;;;;;4989163;28;20057;-69
2023/02/08 01:39:44;;;;;;;20.05;8.55;;;;;;;;;;4988156;28;20049;-69
2023/02/08 01:42:12;;;;;;;18.00;7.72;;;;;;;;;;4991624;28;20019;-69
2023/02/08 01:44:56;;;;;;;21.48;7.78;;;;;;;;;;4988155;28;20022;-69
2023/02/08 01:47:21;;;;;;;22.02;7.82;;;;;;;;;;4984813;28;20026;-69
2023/02/08 01:49:47;;;;;;;21.35;8.95;;;;;;;;;;4986397;28;20022;-69
2023/02/08 01:52:17;;;;;;;19.60;7.20;;;;;;;;;;4990093;28;20492;-69
2023/02/08 01:54:45;;;;;;;18.80;8.77;;;;;;;;;;4988190;28;20066;-69
2023/02/08 01:57:10;;;;;;;22.75;8.40;;;;;;;;;;4990226;28;20030;-67
2023/02/08 01:59:44;;;;;;;17.33;7.68;;;;;;;;;;4985942;28;20018;-67
2023/02/08 02:02:11;;;;;;;19.95;7.15;;;;;;;;;;4990766;28;20023;-67
2023/02/08 02:04:36;;;;;;;18.00;7.22;;;;;;;;;;4987672;28;20050;-67
2023/02/08 02:07:03;;;;;;;18.17;7.07;;;;;;;;;;4972493;28;20382;-67
2023/02/08 02:09:32;;;;;;;21.35;7.57;;;;;;;;;;4987982;28;20014;-67
2023/02/08 02:11:57;;;;;;;16.92;7.57;;;;;;;;;;4990327;28;20026;-67
2023/02/08 02:14:23;;;;;;;17.55;7.78;;;;;;;;;;4988682;28;20105;-68
2023/02/08 02:16:48;;;;;;;15.75;7.82;;;;;;;;;;4990086;28;20464;-67
2023/02/08 02:19:36;;;;;;;18.08;8.13;;;;;;;;;;4987592;28;20442;-68
2023/02/08 02:22:25;;;;;;;17.42;7.57;;;;;;;;;;4978153;28;20107;-68
2023/02/08 02:25:01;;;;;;;12.32;5.43;;;;;;;;;;4988444;28;20148;-68
2023/02/08 02:27:36;;;;;;;16.73;7.22;;;;;;;;;;4985624;28;20011;-68
2023/02/08 02:30:16;;;;;;;17.25;7.63;;;;;;;;;;4988031;28;20014;-68
2023/02/08 02:32:41;;;;;;;;;;;;;;;;;;4988529;28;20030;-68
2023/02/08 02:35:26;;;;;;;18.77;7.88;;;;;;;;;;4987697;28;19910;-68
2023/02/08 02:38:01;;;;;;;19.83;6.78;;;;;;;;;;4989031;28;20019;-68
2023/02/08 02:40:32;;;;;;;19.00;7.80;;;;;;;;;;4986565;28;20034;-68
2023/02/08 02:45:44;;;;;;;20.65;7.93;;;;;;;;;;4986520;28;20048;-68
2023/02/08 02:48:16;;;;;;;18.10;7.43;;;;;;;;;;4988484;28;20113;-68
2023/02/08 02:50:46;;;;;;;16.58;7.53;;;;;;;;;;4987064;28;20030;-68
2023/02/08 02:53:16;;;;;;;14.68;7.13;;;;;;;;;;4987389;28;20073;-68
2023/02/08 02:55:46;;;;;;;13.88;7.07;;;;;;;;;;4984677;28;20084;-68
2023/02/08 02:58:12;;;;;;;18.02;7.78;;;;;;;;;;4988989;28;20027;-68
2023/02/08 03:00:38;;;;;;;18.23;7.63;;;;;;;;;;4988527;28;20061;-69
2023/02/08 03:03:03;;;;;;;17.20;7.85;;;;;;;;;;4987417;28;20157;-67
2023/02/08 03:05:28;;;;;;;18.15;8.10;;;;;;;;;;4969864;28;20041;-69
2023/02/08 03:08:07;;;;;;;17.58;7.82;;;;;;;;;;4988072;28;20027;-68
2023/02/08 03:10:45;;;;;;;20.33;8.70;;;;;;;;;;4986945;28;20054;-68
2023/02/08 03:13:18;;;;;;;19.13;7.85;;;;;;;;;;4989982;28;20050;-68
2023/02/08 03:15:46;;;;;;;16.83;7.97;;;;;;;;;;4982640;28;20022;-68
2023/02/08 03:18:14;;;;;;;15.88;6.82;;;;;;;;;;4989072;28;20123;-67
2023/02/08 03:20:46;;;;;;;19.33;7.63;;;;;;;;;;4991817;28;20497;-68
2023/02/08 03:23:29;;;;;;;19.13;7.63;;;;;;;;;;4992230;28;20307;-68
2023/02/08 03:26:10;;;;;;;18.05;8.32;;;;;;;;;;4989357;28;20084;-68
2023/02/08 03:28:35;;;;;;;18.05;8.50;;;;;;;;;;4990967;28;20037;-68
2023/02/08 03:31:04;;;;;;;17.13;7.70;;;;;;;;;;4991343;28;20382;-68
2023/02/08 03:33:39;;;;;;;15.90;7.25;;;;;;;;;;4986131;28;20273;-68
2023/02/08 03:36:19;;;;;;;18.67;7.32;;;;;;;;;;4989348;28;20053;-68
2023/02/08 03:38:46;;;;;;;21.08;7.35;;;;;;;;;;4987424;28;20042;-68
2023/02/08 03:41:17;;;;;;;17.60;7.63;;;;;;;;;;4991341;28;20026;-68
2023/02/08 03:43:48;;;;;;;17.08;7.30;;;;;;;;;;4992181;28;20026;-68
2023/02/08 03:46:19;;;;;;;20.52;8.48;;;;;;;;;;4990662;28;20034;-68
2023/02/08 03:48:46;;;;;;;19.45;7.22;;;;;;;;;;4992573;28;20443;-68
2023/02/08 03:51:13;;;;;;;18.65;8.52;;;;;;;;;;4990405;28;20054;-68
2023/02/08 03:53:40;;;;;;;21.85;8.45;;;;;;;;;;4991905;28;20026;-69
2023/02/08 03:56:14;;;;;;;20.10;7.60;;;;;;;;;;4989619;28;20018;-68
2023/02/08 03:58:46;;;;;;;18.55;8.10;;;;;;;;;;4990804;28;20113;-68
2023/02/08 04:01:17;;;;;;;19.42;7.90;;;;;;;;;;4991605;28;20509;-68
2023/02/08 04:03:43;;;;;;;17.45;7.82;;;;;;;;;;4991017;28;21835;-70
2023/02/08 04:06:09;;;;;;;15.68;6.82;;;;;;;;;;4991697;28;20034;-69
2023/02/08 04:08:34;;;;;;;16.98;8.02;;;;;;;;;;4990786;28;20088;-68
2023/02/08 04:10:59;;;;;;;17.43;7.87;;;;;;;;;;4991743;28;20022;-68
2023/02/08 04:13:24;;;;;;;23.08;10.23;;;;;;;;;;4991978;28;20758;-69
2023/02/08 04:15:49;;;;;;;22.47;8.40;;;;;;;;;;4989510;28;20021;-69
2023/02/08 04:18:14;;;;;;;19.35;8.27;;;;;;;;;;4992022;28;20345;-69
2023/02/08 04:20:40;;;;;;;20.75;8.20;;;;;;;;;;4989167;28;20045;-69
2023/02/08 04:23:05;;;;;;;24.42;8.15;;;;;;;;;;4990811;28;20127;-69
2023/02/08 04:25:30;;;;;;;24.42;7.90;;;;;;;;;;4991694;28;20026;-69
2023/02/08 04:27:55;;;;;;;21.38;8.43;;;;;;;;;;4991728;28;20034;-69
2023/02/08 04:30:20;;;;;;;19.95;7.18;;;;;;;;;;4988154;28;20023;-69
2023/02/08 04:32:45;;;;;;;22.17;8.27;;;;;;;;;;4990585;28;20289;-69
2023/02/08 04:35:11;;;;;;;15.73;7.20;;;;;;;;;;4991154;28;20483;-69
2023/02/08 04:37:36;;;;;;;20.77;8.52;;;;;;;;;;4990032;28;20443;-69
2023/02/08 04:40:01;;;;;;;18.73;7.68;;;;;;;;;;4990619;28;20032;-69
2023/02/08 04:42:26;;;;;;;19.98;8.02;;;;;;;;;;4991799;28;20025;-69
2023/02/08 04:44:52;;;;;;;18.33;7.97;;;;;;;;;;4988395;28;20034;-69
2023/02/08 04:47:17;;;;;;;17.13;8.00;;;;;;;;;;4990130;28;20037;-68
2023/02/08 04:49:42;;;;;;;18.48;6.90;;;;;;;;;;4988475;28;20277;-69
2023/02/08 04:52:07;;;;;;;23.45;8.07;;;;;;;;;;4990820;28;20109;-69
2023/02/08 04:54:32;;;;;;;22.40;8.63;;;;;;;;;;4990490;28;20080;-68
2023/02/08 04:56:58;;;;;;;20.88;7.55;;;;;;;;;;4988071;28;20053;-69
2023/02/08 04:59:23;;;;;;;21.90;8.75;;;;;;;;;;4990912;28;20034;-70
2023/02/08 05:01:48;;;;;;;15.55;7.63;;;;;;;;;;4989686;28;20046;-69
2023/02/08 05:04:13;;;;;;;18.05;7.78;;;;;;;;;;4989764;28;20431;-68
2023/02/08 05:06:39;;;;;;;19.98;9.02;;;;;;;;;;4989464;28;20057;-69
2023/02/08 05:09:06;;;;;;;22.20;8.20;;;;;;;;;;4991389;28;20076;-68
2023/02/08 05:11:31;;;;;;;15.63;7.22;;;;;;;;;;4989268;28;20030;-68
2023/02/08 05:13:56;;;;;;;18.98;8.18;;;;;;;;;;4990762;28;20106;-68
2023/02/08 05:16:21;;;;;;;20.02;8.30;;;;;;;;;;4989876;28;20509;-69
2023/02/08 05:18:46;;;;;;;18.70;8.02;;;;;;;;;;4983658;28;20026;-69
2023/02/08 05:21:12;;;;;;;22.83;8.52;;;;;;;;;;4988166;28;20050;-69
2023/02/08 05:23:37;;;;;;;22.30;8.57;;;;;;;;;;4988825;28;20109;-69
2023/02/08 05:26:06;;;;;;;22.55;8.60;;;;;;;;;;4988511;28;20753;-69
2023/02/08 05:28:31;;;;;;;20.10;8.15;;;;;;;;;;4986023;28;20541;-69
2023/02/08 05:31:06;;;;;;;20.73;8.38;;;;;;;;;;4987789;23;20055;-90
2023/02/08 05:33:31;;;;;;;18.65;8.43;;;;;;;;;;4958019;28;20038;-90
2023/02/08 05:35:57;;;;;;;21.08;8.35;;;;;;;;;;4935104;28;20023;-91
2023/02/08 05:38:25;;;;;;;23.27;8.25;;;;;;;;;;4940548;28;20023;-90
2023/02/08 05:40:50;;;;;;;17.05;7.88;;;;;;;;;;4943541;28;20027;-90
2023/02/08 05:43:15;;;;;;;28.67;8.90;;;;;;;;;;4938685;28;20054;-90
2023/02/08 05:45:41;;;;;;;20.30;8.75;;;;;;;;;;4949991;28;20122;-90
2023/02/08 05:48:09;;;;;;;21.60;9.02;;;;;;;;;;4965598;28;20034;-90
2023/02/08 05:50:34;;;;;;;22.50;8.57;;;;;;;;;;4949945;28;20038;-89
2023/02/08 05:53:00;;;;;;;25.58;8.98;;;;;;;;;;4937104;28;20012;-90
2023/02/08 05:55:27;;;;;;;23.88;9.40;;;;;;;;;;4938332;29;20389;-90
2023/02/08 05:57:52;;;;;;;21.17;9.27;;;;;;;;;;4934908;28;20015;-90
2023/02/08 06:00:18;;;;;;;28.92;9.90;;;;;;;;;;4935951;29;20023;-90
2023/02/08 06:02:44;;;;;;;24.67;9.07;;;;;;;;;;4952102;28;20501;-90
2023/02/08 06:05:09;;;;;;;18.85;8.30;;;;;;;;;;4934794;29;20180;-90
2023/02/08 06:07:34;;;;;;;21.42;9.63;;;;;;;;;;4952710;28;20477;-90
2023/02/08 06:10:00;;;;;;;21.95;9.05;;;;;;;;;;4944378;28;20027;-90
2023/02/08 06:12:25;;;;;;;25.80;10.35;;;;;;;;;;4938648;29;20027;-90
2023/02/08 06:14:54;;;;;;;27.60;10.05;;;;;;;;;;4941226;28;20046;-90
2023/02/08 06:17:19;;;;;;;26.45;10.32;;;;;;;;;;4939855;29;20019;-90
2023/02/08 06:19:44;;;;;;;30.75;10.45;;;;;;;;;;4955965;28;20023;-90
2023/02/08 06:29:11;;;;;;;19.38;8.95;;;;;;;;;;4907912;29;20472;-90
2023/02/08 06:42:09;;;;;;;24.38;9.93;;;;;;;;;;4876278;29;20432;-89
2023/02/08 06:45:13;;;;;;;;;;;;;;;;;;;;;
2023/02/08 06:48:18;;;;;;;;;;;;;;;;;;;;;
2023/02/08 06:51:26;;;;;;;;;;;;;;;;;;;;;
2023/02/08 06:54:19;;;;;;;25.27;9.52;;;;;;;;;;4840313;29;20036;-90
2023/02/08 06:57:12;;;;;;;;;;;;;;;;;;;;;
2023/02/08 07:02:59;;;;;;;24.33;10.20;;;;;;;;;;4864158;29;20036;-89
2023/02/08 07:06:03;;;;;;;23.15;10.23;;;;;;;;;;4951271;28;20046;-91
2023/02/08 07:08:28;;;;;;;20.30;9.07;;;;;;;;;;4950776;28;20267;-91
2023/02/08 07:10:57;;;;;;;19.50;9.02;;;;;;;;;;4951393;28;20038;-91
2023/02/08 07:13:23;;;;;;;22.83;8.70;;;;;;;;;;4930098;28;20039;-91
2023/02/08 07:16:05;;;;;;;;;;;;;;;;;;;;;
2023/02/08 07:18:31;;;;;;;26.92;9.85;;;;;;;;;;4950213;28;20023;-91
2023/02/08 07:20:57;;;;;;;19.58;8.75;;;;;;;;;;4936253;28;20174;-91
2023/02/08 07:23:25;;;;;;;23.25;9.88;;;;;;;;;;4934008;28;20036;-91
2023/02/08 07:26:01;;;;;;;26.40;10.00;;;;;;;;;;4960944;28;20039;-90
2023/02/08 07:28:32;;;;;;;26.23;10.10;;;;;;;;;;4948704;28;20027;-89
2023/02/08 07:31:14;;;;;;;31.83;9.32;;;;;;;;;;4950787;28;20065;-89
2023/02/08 07:33:48;;;;;;;24.35;9.88;;;;;;;;;;4955374;28;20034;-89
2023/02/08 07:36:59;;;;;;;19.75;9.00;;;;;;;;;;4949008;28;20098;-89
2023/02/08 07:39:20;;;;;;;19.80;8.48;;;;;;;;;;4949816;28;20053;-89
2023/02/08 07:42:23;;;;;;;22.90;8.93;;;;;;;;;;4928107;28;20035;-90
2023/02/08 07:45:07;;;;;;;;;;;;;;;;;;;;;
2023/02/08 07:50:00;;;;;;;27.00;9.93;;;;;;;;;;4950126;28;20059;-70
2023/02/08 07:52:25;;;;;;;23.00;9.20;;;;;;;;;;4948107;28;20027;-70
2023/02/08 07:54:50;;;;;;;19.30;6.75;;;;;;;;;;4948365;28;20387;-70
2023/02/08 07:57:20;;;;;;;20.73;9.02;;;;;;;;;;4948822;28;20065;-70
2023/02/08 07:59:45;;;;;;;18.02;8.43;;;;;;;;;;4950192;28;20029;-70
2023/02/08 08:02:11;;;;;;;19.45;7.93;;;;;;;;;;4950566;28;20035;-70
2023/02/08 08:04:36;;;;;;;18.80;8.75;;;;;;;;;;4946242;28;20029;-70
2023/02/08 08:07:01;;;;;;;24.00;8.90;;;;;;;;;;4948914;28;20042;-70
2023/02/08 08:09:26;;;;;;;21.53;9.67;;;;;;;;;;4951829;28;20305;-70
2023/02/08 08:11:52;;;;;;;22.00;9.10;;;;;;;;;;4951288;28;20286;-70
2023/02/08 08:14:17;;;;;;;27.67;9.80;;;;;;;;;;4951550;28;20027;-70
2023/02/08 08:16:42;;;;;;;19.30;8.45;;;;;;;;;;4949908;28;20277;-70
2023/02/08 08:19:07;;;;;;;25.95;10.18;;;;;;;;;;4951295;28;20067;-70
2023/02/08 08:21:33;;;;;;;17.77;8.88;;;;;;;;;;4954954;28;20475;-70
2023/02/08 08:23:58;;;;;;;16.85;8.80;;;;;;;;;;4956871;28;20035;-70
2023/02/08 08:26:23;;;;;;;20.38;9.10;;;;;;;;;;4951285;28;20109;-70
2023/02/08 08:28:48;;;;;;;19.90;9.05;;;;;;;;;;4949899;28;20065;-70
2023/02/08 08:31:15;;;;;;;19.38;8.65;;;;;;;;;;4950954;28;20020;-70
2023/02/08 08:33:40;;;;;;;23.30;9.32;;;;;;;;;;4950670;28;20015;-70
2023/02/08 08:36:06;;;;;;;17.55;9.30;;;;;;;;;;4948566;28;20027;-70
2023/02/08 08:38:31;;;;;;;20.65;9.57;;;;;;;;;;4951077;28;20023;-68
2023/02/08 08:40:56;;;;;;;19.37;9.07;;;;;;;;;;4950041;28;20054;-70
2023/02/08 08:43:22;;;;;;;15.85;8.48;;;;;;;;;;4951281;28;20321;-68
2023/02/08 08:45:47;;;;;;;18.53;9.13;;;;;;;;;;4948711;28;20027;-69
2023/02/08 08:48:12;;;;;;;17.97;8.70;;;;;;;;;;4950101;28;20622;-68
2023/02/08 08:50:38;;;;;;;16.73;8.67;;;;;;;;;;4951617;28;20317;-69
2023/02/08 08:53:03;;;;;;;21.73;9.02;;;;;;;;;;4947906;28;20278;-69
2023/02/08 08:55:28;;;;;;;18.85;9.15;;;;;;;;;;4947959;28;20171;-69
2023/02/08 08:57:54;;;;;;;20.27;8.70;;;;;;;;;;4950774;28;20510;-69
2023/02/08 09:00:19;;;;;;;21.08;8.85;;;;;;;;;;4949331;28;20282;-69
2023/02/08 09:02:44;;;;;;;26.38;10.00;;;;;;;;;;4952027;28;20432;-69
2023/02/08 09:05:09;;;;;;;21.13;10.10;;;;;;;;;;4946497;28;20026;-70
2023/02/08 09:07:35;;;;;;;21.77;9.97;;;;;;;;;;4951932;28;20286;-69
2023/02/08 09:10:00;;;;;;;18.15;10.10;;;;;;;;;;4948458;28;20294;-70
2023/02/08 09:12:25;;;;;;;25.10;9.95;;;;;;;;;;4946552;28;20035;-70
2023/02/08 09:14:50;;;;;;;25.73;10.37;;;;;;;;;;4947583;28;20035;-69
2023/02/08 09:17:15;;;;;;;17.20;9.50;;;;;;;;;;4944735;28;20763;-70
2023/02/08 09:19:41;;;;;;;20.53;10.53;;;;;;;;;;4951823;28;20278;-70
2023/02/08 09:22:06;;;;;;;18.60;9.73;;;;;;;;;;4952702;28;20267;-70
2023/02/08 09:24:32;;;;;;;19.85;10.27;;;;;;;;;;4947854;28;20031;-70
2023/02/08 09:26:57;;;;;;;17.20;10.93;;;;;;;;;;4948294;28;20043;-69
2023/02/08 09:29:22;;;;;;;16.25;9.00;;;;;;;;;;4948634;28;20023;-69
2023/02/08 09:31:48;;;;;;;19.97;9.00;;;;;;;;;;4946389;28;20023;-69
2023/02/08 09:34:13;;;;;;;16.23;9.30;;;;;;;;;;4947458;28;20286;-69
2023/02/08 09:36:39;;;;;;;18.50;8.07;;;;;;;;;;4951301;28;20428;-69
2023/02/08 09:39:15;;;;;;;13.07;7.63;;;;;;;;;;4948717;28;20271;-69
2023/02/08 09:41:59;;;;;;;14.52;8.27;;;;;;;;;;4949259;28;20035;-69
2023/02/08 09:44:24;;;;;;;16.20;7.70;;;;;;;;;;4949090;28;20027;-69
2023/02/08 09:46:55;;;;;;;17.67;7.65;;;;;;;;;;4949478;28;20023;-69
2023/02/08 09:49:23;;;;;;;27.45;8.20;;;;;;;;;;4951468;28;20086;-70
2023/02/08 09:51:57;;;;;;;15.55;8.32;;;;;;;;;;4946253;28;20030;-70
2023/02/08 09:54:29;;;;;;;15.00;8.02;;;;;;;;;;4951463;28;20038;-70
2023/02/08 09:57:00;;;;;;;22.02;8.18;;;;;;;;;;4947061;28;20383;-70
2023/02/08 09:59:27;;;;;;;15.95;7.47;;;;;;;;;;4951362;28;20038;-70
2023/02/08 10:01:58;;;;;;;9.40;5.00;;;;;;;;;;4947079;28;20102;-70
2023/02/08 10:04:27;;;;;;;9.55;5.10;;;;;;;;;;4953836;28;20383;-70
2023/02/08 10:06:52;;;;;;;6.75;3.83;;;;;;;;;;4951104;28;20023;-70
2023/02/08 10:09:19;;;;;;;9.60;4.80;;;;;;;;;;4949802;28;20514;-70
2023/02/08 10:12:03;;;;;;;8.15;3.95;;;;;;;;;;4949744;28;20019;-69
2023/02/08 10:14:46;;;;;;;8.90;4.00;;;;;;;;;;4949157;28;20031;-69
2023/02/08 10:17:18;;;;;;;8.93;4.13;;;;;;;;;;4947690;28;20023;-69
2023/02/08 10:20:01;;;;;;;9.70;3.75;;;;;;;;;;4948523;28;20106;-69
2023/02/08 10:22:46;;;;;;;8.98;4.38;;;;;;;;;;4948468;28;20110;-69
2023/02/08 10:25:11;;;;;;;4.80;2.85;;;;;;;;;;4949859;28;20023;-69
2023/02/08 10:27:37;;;;;;;8.57;3.10;;;;;;;;;;4964179;28;20407;-69
2023/02/08 10:30:14;;;;;;;7.35;3.80;;;;;;;;;;4948198;28;20029;-69
2023/02/08 10:33:02;;;;;;;8.73;3.22;;;;;;;;;;4949763;28;20027;-69
2023/02/08 10:35:35;;;;;;;9.00;3.45;;;;;;;;;;4945668;28;20031;-71
2023/02/08 10:38:01;;;;;;;9.20;3.92;;;;;;;;;;4946871;28;20411;-70
2023/02/08 10:40:26;;;;;;;8.82;4.35;;;;;;;;;;4948212;28;20027;-70
2023/02/08 10:42:57;;;;;;;8.95;4.28;;;;;;;;;;4947449;28;20046;-70
2023/02/08 10:45:25;;;;;;;9.20;4.10;;;;;;;;;;4951033;28;20031;-70
2023/02/08 10:47:53;;;;;;;7.97;2.88;;;;;;;;;;4947491;28;20054;-70
2023/02/08 10:50:31;;;;;;;5.32;3.10;;;;;;;;;;4947913;28;20019;-70
2023/02/08 10:52:56;;;;;;;6.28;3.47;;;;;;;;;;4948859;28;20078;-70
2023/02/08 10:55:21;;;;;;;11.10;3.78;;;;;;;;;;4949348;28;20023;-70
2023/02/08 10:57:47;;;;;;;8.07;3.22;;;;;;;;;;4948075;28;20015;-70
2023/02/08 11:00:13;;;;;;;6.65;3.00;;;;;;;;;;4947944;28;20106;-70
2023/02/08 11:02:39;;;;;;;6.53;2.33;;;;;;;;;;4951984;28;20090;-69
2023/02/08 11:05:12;;;;;;;4.35;2.78;;;;;;;;;;4949976;28;20027;-70
2023/02/08 11:07:38;;;;;;;9.65;3.00;;;;;;;;;;4948515;28;20058;-70
2023/02/08 11:10:18;;;;;;;10.35;3.47;;;;;;;;;;4949914;28;20051;-70
2023/02/08 11:13:00;;;;;;;7.63;3.50;;;;;;;;;;4951384;28;20452;-70
2023/02/08 11:15:38;;;;;;;12.77;3.20;;;;;;;;;;4948536;28;20480;-70
2023/02/08 11:18:05;;;;;;;4.70;2.65;;;;;;;;;;4947624;28;20022;-69
2023/02/08 11:20:35;;;;;;;5.22;2.47;;;;;;;;;;4947776;28;20020;-70
2023/02/08 11:23:01;;;;;;;4.75;2.65;;;;;;;;;;4951788;28;20022;-69
2023/02/08 11:25:31;;;;;;;6.80;2.78;;;;;;;;;;4945988;28;20039;-70
2023/02/08 11:27:59;;;;;;;8.65;2.30;;;;;;;;;;4947309;28;20104;-69
2023/02/08 11:30:24;;;;;;;5.53;2.28;;;;;;;;;;4946659;28;20035;-69
2023/02/08 11:33:09;;;;;;;6.32;1.92;;;;;;;;;;4954264;28;20024;-69
2023/02/08 11:35:35;;;;;;;3.47;2.25;;;;;;;;;;4945667;28;20023;-69
2023/02/08 11:38:00;;;;;;;8.55;2.53;;;;;;;;;;4949010;28;20384;-70
2023/02/08 11:40:32;;;;;;;4.40;1.80;;;;;;;;;;4950319;28;20058;-70
2023/02/08 11:42:58;;;;;;;5.60;2.20;;;;;;;;;;4956438;28;20015;-70
2023/02/08 11:45:24;;;;;;;5.47;2.83;;;;;;;;;;4954144;28;20361;-69
2023/02/08 11:47:50;;;;;;;12.90;2.35;;;;;;;;;;4955048;28;20022;-69
2023/02/08 11:50:32;;;;;;;7.22;2.42;;;;;;;;;;4952791;28;20575;-70
2023/02/08 11:52:59;;;;;;;5.05;2.40;;;;;;;;;;4954118;28;20511;-70
2023/02/08 11:55:26;;;;;;;6.15;2.42;;;;;;;;;;4953944;28;20035;-69
2023/02/08 11:57:53;;;;;;;3.67;1.88;;;;;;;;;;4954643;28;20479;-68
2023/02/08 12:00:20;;;;;;;7.68;2.28;;;;;;;;;;4955302;28;20053;-69
2023/02/08 12:02:45;;;;;;;6.75;2.25;;;;;;;;;;4953937;28;20023;-68
2023/02/08 12:05:15;;;;;;;5.00;2.40;;;;;;;;;;4953393;28;20102;-68
2023/02/08 12:07:43;;;;;;;13.57;3.60;;;;;;;;;;4954081;28;20122;-69
2023/02/08 12:10:30;;;;;;;10.38;2.90;;;;;;;;;;4952607;28;20090;-69
2023/02/08 12:13:04;;;;;;;6.97;3.53;;;;;;;;;;4953003;28;20523;-69
2023/02/08 12:15:51;;;;;;;8.75;3.47;;;;;;;;;;4954347;28;20031;-70
2023/02/08 12:18:22;;;;;;;3.65;1.92;;;;;;;;;;4951879;28;20047;-69
2023/02/08 12:20:53;;;;;;;6.63;3.13;;;;;;;;;;4950248;28;20043;-69
2023/02/08 12:23:26;;;;;;;4.82;2.13;;;;;;;;;;4955289;28;20030;-68
2023/02/08 12:25:58;;;;;;;2.97;1.13;;;;;;;;;;4957052;28;20028;-69
2023/02/08 12:28:37;;;;;;;5.00;2.10;;;;;;;;;;4952746;28;20070;-68
2023/02/08 12:31:16;;;;;;;5.70;3.20;;;;;;;;;;4952603;28;20106;-69
2023/02/08 12:34:00;;;;;;;6.40;2.17;;;;;;;;;;4953474;28;20243;-68
2023/02/08 12:36:43;;;;;;;5.03;2.22;;;;;;;;;;4947781;28;20476;-68
2023/02/08 12:42:05;;;;;;;4.55;2.20;;;;;;;;;;4951704;28;20420;-69
2023/02/08 12:44:39;;;;;;;5.15;1.95;;;;;;;;;;4953416;28;20049;-70
2023/02/08 12:47:24;;;;;;;6.55;2.78;;;;;;;;;;4950837;28;20027;-70
2023/02/08 12:49:49;;;;;;;4.97;1.40;;;;;;;;;;4953509;28;20110;-69
2023/02/08 12:52:34;;;;;;;5.55;2.50;;;;;;;;;;4950447;28;20114;-69
2023/02/08 12:55:01;;;;;;;5.70;1.63;;;;;;;;;;4949002;28;20015;-69
2023/02/08 12:57:28;;;;;;;6.50;3.08;;;;;;;;;;4949418;28;20023;-69
2023/02/08 13:00:06;;;;;;;8.45;3.00;;;;;;;;;;4947918;28;20472;-70
2023/02/08 13:02:34;;;;;;;5.85;2.80;;;;;;;;;;4950668;28;20031;-70
2023/02/08 13:05:02;;;;;;;5.05;2.67;;;;;;;;;;4950250;28;20051;-69
2023/02/08 13:07:49;;;;;;;5.43;2.03;;;;;;;;;;4950748;28;20053;-68
2023/02/08 13:10:25;;;;;;;5.28;2.40;;;;;;;;;;4947012;28;20023;-69
2023/02/08 13:12:54;;;;;;;23.17;3.88;;;;;;;;;;4950653;28;20028;-69
2023/02/08 13:15:23;;;;;;;7.72;2.78;;;;;;;;;;4949590;28;20031;-68
2023/02/08 13:17:51;;;;;;;9.63;2.95;;;;;;;;;;4948237;28;20019;-71
2023/02/08 13:20:27;;;;;;;3.75;1.75;;;;;;;;;;4947894;28;20019;-69
2023/02/08 13:22:55;;;;;;;8.55;2.28;;;;;;;;;;4950776;28;20118;-68
2023/02/08 13:25:24;;;;;;;3.00;1.33;;;;;;;;;;4950721;28;20035;-68
2023/02/08 13:27:50;;;;;;;6.15;1.48;;;;;;;;;;4950048;28;20107;-67
2023/02/08 13:30:17;;;;;;;1.10;0.88;;;;;;;;;;4949601;28;20110;-68
2023/02/08 13:32:43;;;;;;;4.15;2.03;;;;;;;;;;4951045;28;20030;-69
2023/02/08 13:35:11;;;;;;;5.07;1.40;;;;;;;;;;4950793;28;20046;-68
2023/02/08 13:37:37;;;;;;;4.88;1.98;;;;;;;;;;4948444;28;20023;-68
2023/02/08 13:40:07;;;;;;;4.55;2.70;;;;;;;;;;4950924;28;20015;-70
2023/02/08 13:42:35;;;;;;;5.03;2.92;;;;;;;;;;4949797;28;20067;-69
2023/02/08 13:45:01;;;;;;;6.57;2.90;;;;;;;;;;4951022;28;20023;-68
2023/02/08 13:47:27;;;;;;;6.50;2.47;;;;;;;;;;4947136;28;20255;-68
2023/02/08 13:49:54;;;;;;;7.15;2.95;;;;;;;;;;4951680;28;20024;-69
2023/02/08 13:52:32;;;;;;;7.78;3.30;;;;;;;;;;4951343;28;20050;-69
2023/02/08 13:55:15;;;;;;;5.45;2.90;;;;;;;;;;4950572;28;20015;-69
2023/02/08 13:57:50;;;;;;;4.60;2.65;;;;;;;;;;4948906;28;20034;-68
2023/02/08 14:00:24;;;;;;;5.60;3.00;;;;;;;;;;4947253;28;20023;-69
2023/02/08 14:02:59;;;;;;;6.05;3.58;;;;;;;;;;4947345;28;20031;-68
2023/02/08 14:05:33;;;;;;;6.20;3.45;;;;;;;;;;4950739;28;20031;-68
2023/02/08 14:08:00;;;;;;;7.90;2.70;;;;;;;;;;4948598;28;20031;-69
2023/02/08 14:10:39;;;;;;;7.97;2.70;;;;;;;;;;4948597;28;20031;-69
2023/02/08 14:13:07;;;;;;;14.80;2.37;;;;;;;;;;4948950;28;20027;-68
2023/02/08 14:15:35;;;;;;;4.40;2.10;;;;;;;;;;4949371;28;20019;-68
2023/02/08 14:18:01;;;;;;;3.47;1.83;;;;;;;;;;4950071;28;20046;-68
2023/02/08 14:20:39;;;;;;;4.32;2.33;;;;;;;;;;4949498;28;20472;-68
2023/02/08 14:23:06;;;;;;;6.55;2.63;;;;;;;;;;4950713;28;20015;-68
2023/02/08 14:25:42;;;;;;;6.18;2.42;;;;;;;;;;4952603;28;20023;-68
2023/02/08 14:28:22;;;;;;;9.70;3.03;;;;;;;;;;4950654;28;20023;-68
2023/02/08 14:30:49;;;;;;;6.70;3.15;;;;;;;;;;4950672;28;20028;-68
2023/02/08 14:33:18;;;;;;;4.57;2.95;;;;;;;;;;4950006;28;20034;-68
2023/02/08 14:35:51;;;;;;;7.70;2.38;;;;;;;;;;4950897;28;20019;-69
2023/02/08 14:38:19;;;;;;;5.15;2.40;;;;;;;;;;4959361;28;20024;-68
2023/02/08 14:40:55;;;;;;;7.03;3.08;;;;;;;;;;4951762;28;20019;-68
2023/02/08 14:43:34;;;;;;;6.57;3.28;;;;;;;;;;4944688;28;20489;-69
2023/02/08 14:46:18;;;;;;;6.28;2.83;;;;;;;;;;4949738;28;20102;-68
2023/02/08 14:48:47;;;;;;;5.93;2.83;;;;;;;;;;4948039;28;20499;-69
2023/02/08 14:51:23;;;;;;;9.60;2.53;;;;;;;;;;4948537;28;20046;-69
2023/02/08 14:53:55;;;;;;;6.40;3.55;;;;;;;;;;4947931;28;20521;-69
2023/02/08 14:56:29;;;;;;;4.45;2.63;;;;;;;;;;4948022;28;20031;-68
2023/02/08 14:58:57;;;;;;;7.65;2.92;;;;;;;;;;4958216;28;20016;-68
2023/02/08 15:01:25;;;;;;;5.68;2.60;;;;;;;;;;4954284;28;20632;-69
2023/02/08 15:03:53;;;;;;;5.35;2.40;;;;;;;;;;4949671;28;20065;-68
2023/02/08 15:06:36;;;;;;;4.45;2.40;;;;;;;;;;4943288;28;20069;-69
2023/02/08 15:09:05;;;;;;;5.90;2.20;;;;;;;;;;4948169;28;20029;-68
2023/02/08 15:11:32;;;;;;;5.22;1.35;;;;;;;;;;4946507;28;20051;-69
2023/02/08 15:13:58;;;;;;;5.07;2.30;;;;;;;;;;4950400;28;20019;-68
2023/02/08 15:16:27;;;;;;;8.13;2.40;;;;;;;;;;4950391;28;20391;-69
2023/02/08 15:18:53;;;;;;;5.55;2.28;;;;;;;;;;4958139;28;20011;-68
2023/02/08 15:21:19;;;;;;;5.90;2.63;;;;;;;;;;4956217;28;20016;-68
2023/02/08 15:24:01;;;;;;;4.50;2.17;;;;;;;;;;4952755;28;20278;-68
2023/02/08 15:26:27;;;;;;;4.30;1.92;;;;;;;;;;4950105;28;20028;-68